EKCH

Copenhagen Kastrup Airport

Copenhagen, Denmark
METAR EKCH 172050Z 19003KT 0800 R22L/P1500N R04L/0275N R12/P1500N BCFG NSC 11/11 Q1020 TEMPO 2000 BR
Observed Flight Rules
Oct-17 @ 20:50 UTC (14 minutes ago) Instrument Flight Rules
Wind Visibility Clouds Conditions
190° at 3 knots 805 meters
  • Clear skies
  • Patches of
  • Fog
Temperatures Readings
Current 11°C / 52°F
Dewpoint 11°C / 52°F
Humidity 100%
Altimeter 30.12" Hg
Pressure 1020 hPa
Elevation 5
METAR EKCH 172050Z 19003KT 0800 R22L/P1500N R04L/0275N R12/P1500N BCFG NSC 11/11 Q1020 TEMPO 2000 BR
Observed Flight Rules
Oct-17 @ 20:50 UTC
(14 minutes ago)
LIFR
Wind Visibility
190° at 3 knots 805 meters
Clouds
  • Clear skies
Conditions
  • Patches of
  • Fog
Temperature Dewpoint
11°C / 52°F 11°C / 52°F
Humidity Altimeter Pressure
100% 30.12" Hg 1020 hPa